Time;durP1;ratioP1;P1;durP2;ratioP2;P2;SDS_P1;SDS_P2;PMS_P1;PMS_P2;Temp;Humidity;BMP_temperature;BMP_pressure;BME280_temperature;BME280_humidity;BME280_pressure;Samples;Min_cycle;Max_cycle;Signal;HPM_P1;HPM_P2
2023/10/30 00:08:24;;;;;;;2.72;2.03;;;11.00;99.90;;;;;;5605947;23;20030;-80
2023/10/30 00:21:48;;;;;;;4.97;2.35;;;10.90;99.90;;;;;;5529572;23;20049;-79
2023/10/30 00:24:37;;;;;;;8.95;2.83;;;10.90;99.90;;;;;;5003417;28;20018;-79
2023/10/30 00:28:00;;;;;;;2.63;1.90;;;10.80;99.90;;;;;;5016686;28;20058;-80
2023/10/30 00:30:27;;;;;;;7.00;2.63;;;10.80;99.90;;;;;;5019284;28;20037;-78
2023/10/30 00:32:53;;;;;;;7.30;2.42;;;10.70;99.90;;;;;;4966862;28;20034;-79
2023/10/30 00:35:25;;;;;;;7.43;2.92;;;10.70;99.90;;;;;;4982446;28;20026;-77
2023/10/30 00:37:52;;;;;;;4.65;2.22;;;10.70;99.90;;;;;;5017508;28;20019;-81
2023/10/30 00:40:22;;;;;;;9.05;2.60;;;10.70;99.90;;;;;;5002228;28;20026;-81
2023/10/30 00:54:09;;;;;;;7.20;1.88;;;10.30;99.90;;;;;;5208547;23;20171;-81
2023/10/30 00:57:25;;;;;;;5.80;1.90;;;10.10;99.90;;;;;;5014922;28;20029;-80
2023/10/30 00:59:51;;;;;;;3.25;1.95;;;10.00;99.90;;;;;;5014397;28;20062;-79
2023/10/30 01:05:47;;;;;;;6.18;1.90;;;10.10;99.90;;;;;;5013062;28;20049;-81
2023/10/30 01:08:12;;;;;;;3.15;2.33;;;9.00;99.90;;;;;;4997315;28;20027;-78
2023/10/30 01:10:39;;;;;;;6.55;2.40;;;10.10;99.90;;;;;;5014922;28;20141;-80
2023/10/30 01:13:04;;;;;;;2.20;1.90;;;10.10;99.90;;;;;;5272486;23;20055;-80
2023/10/30 01:15:34;;;;;;;2.70;2.15;;;10.00;99.90;;;;;;4944440;29;20062;-81
2023/10/30 01:18:00;;;;;;;2.83;2.00;;;10.20;99.90;;;;;;5258972;23;20322;-82
2023/10/30 01:20:44;;;;;;;3.70;1.73;;;10.30;99.90;;;;;;4977946;28;20075;-81
2023/10/30 01:23:35;;;;;;;5.93;2.05;;;10.30;99.90;;;;;;4933867;29;20042;-81
2023/10/30 01:28:36;;;;;;;3.88;2.88;;;10.30;99.90;;;;;;5715371;23;20030;-80
2023/10/30 01:31:04;;;;;;;6.03;2.40;;;9.80;99.90;;;;;;4965444;28;20110;-81
2023/10/30 01:33:30;;;;;;;3.42;2.00;;;10.20;99.90;;;;;;5297193;23;20054;-80
2023/10/30 01:42:07;;;;;;;3.53;2.10;;;10.30;99.90;;;;;;5016224;28;20045;-78
2023/10/30 01:44:33;;;;;;;3.30;2.10;;;10.60;99.90;;;;;;4996288;28;20056;-79
2023/10/30 05:17:18;;;;;;;8.00;4.95;;;8.20;99.90;;;;;;3297931;23;20308;31
2023/10/30 05:19:44;;;;;;;3.90;3.58;;;8.10;99.90;;;;;;4961796;28;20101;-80
2023/10/30 05:22:10;;;;;;;7.97;4.68;;;8.10;99.90;;;;;;4977372;29;20031;-80
2023/10/30 05:27:11;;;;;;;8.07;4.53;;;8.00;99.90;;;;;;5095092;23;20065;-79
2023/10/30 05:29:36;;;;;;;5.38;3.88;;;8.00;99.90;;;;;;5011353;28;20025;-78
2023/10/30 05:32:06;;;;;;;4.97;4.10;;;7.90;99.90;;;;;;4977337;28;20042;-78
2023/10/30 05:34:36;;;;;;;7.00;4.85;;;7.80;99.90;;;;;;4995838;28;20029;-79
2023/10/30 05:37:05;;;;;;;6.88;5.10;;;7.90;99.90;;;;;;4996844;28;20050;-79
2023/10/30 05:39:30;;;;;;;7.25;4.28;;;7.90;99.90;;;;;;4998447;28;20041;-79
2023/10/30 05:41:59;;;;;;;8.65;4.13;;;8.10;99.90;;;;;;5017421;28;20046;-80
2023/10/30 05:44:28;;;;;;;5.93;4.13;;;8.10;99.90;;;;;;5000388;28;20022;-80
2023/10/30 05:46:54;;;;;;;9.90;4.80;;;8.20;99.90;;;;;;5000397;28;20021;-81
2023/10/30 05:49:20;;;;;;;11.07;4.78;;;8.20;99.90;;;;;;4997164;28;20018;-78
2023/10/30 05:51:46;;;;;;;8.90;4.95;;;8.40;99.90;;;;;;5016196;28;20392;-78
2023/10/30 05:54:11;;;;;;;10.77;4.93;;;8.40;99.90;;;;;;4996562;28;20014;-79
2023/10/30 05:56:37;;;;;;;6.28;4.07;;;8.60;99.90;;;;;;4999194;28;20031;-79
2023/10/30 05:59:03;;;;;;;9.93;4.47;;;8.70;99.90;;;;;;4999570;28;20013;-81
2023/10/30 06:01:28;;;;;;;8.55;5.10;;;8.80;99.90;;;;;;4993946;28;20018;-79
2023/10/30 06:03:56;;;;;;;8.90;4.30;;;8.80;99.90;;;;;;5014198;28;20081;-79
2023/10/30 06:06:24;;;;;;;8.90;4.50;;;8.70;99.90;;;;;;4998213;28;20085;-80
2023/10/30 06:08:50;;;;;;;8.77;4.25;;;8.80;99.90;;;;;;4993215;28;20318;-78
2023/10/30 06:11:18;;;;;;;13.25;5.65;;;8.80;99.90;;;;;;4995135;28;20077;-80
2023/10/30 06:14:19;;;;;;;6.53;5.00;;;8.80;99.90;;;;;;5011253;28;20026;-80
2023/10/30 06:16:48;;;;;;;8.40;5.00;;;8.40;99.90;;;;;;5009822;28;20049;-80
2023/10/30 06:19:15;;;;;;;9.38;5.70;;;8.90;99.90;;;;;;4998597;28;20022;-81
2023/10/30 06:21:44;;;;;;;7.22;4.68;;;8.70;99.90;;;;;;4978349;28;20069;-78
2023/10/30 06:27:41;;;;;;;11.60;5.00;;;9.20;99.90;;;;;;4971819;28;20050;-81
2023/10/30 06:30:14;;;;;;;7.60;5.20;;;9.30;99.90;;;;;;4978476;28;20054;-79
2023/10/30 06:32:39;;;;;;;12.52;5.43;;;9.40;99.90;;;;;;4976368;29;20015;-80
2023/10/30 06:35:08;;;;;;;8.43;5.78;;;9.50;99.90;;;;;;4973787;29;20034;-79
2023/10/30 06:40:34;;;;;;;13.45;8.15;;;9.60;99.90;;;;;;5714286;23;20038;-81
2023/10/30 06:43:36;;;;;;;36.47;6.40;;;9.50;99.90;;;;;;4999768;28;20035;-81
2023/10/30 06:46:03;;;;;;;20.30;6.00;;;9.70;99.90;;;;;;5600446;23;20301;-79
2023/10/30 06:48:29;;;;;;;28.27;7.00;;;9.80;99.90;;;;;;5187326;23;20054;-80
2023/10/30 06:50:55;;;;;;;48.08;8.13;;;9.90;99.90;;;;;;4999942;28;20042;-79
2023/10/30 06:53:25;;;;;;;9.65;6.20;;;9.90;99.90;;;;;;5175568;23;20047;-80
2023/10/30 06:58:26;;;;;;;22.13;7.40;;;10.00;99.90;;;;;;5041275;23;20312;-81
2023/10/30 07:00:59;;;;;;;23.58;7.35;;;10.10;99.90;;;;;;4981810;28;20041;-81
2023/10/30 07:03:25;;;;;;;20.90;7.45;;;10.30;99.90;;;;;;4977550;28;20057;-81
2023/10/30 07:06:00;;;;;;;15.00;7.13;;;10.40;99.90;;;;;;4974793;28;20015;-80
2023/10/30 07:08:39;;;;;;;22.25;7.82;;;10.50;99.90;;;;;;4990337;28;20114;-80
2023/10/30 07:11:05;;;;;;;20.67;8.02;;;10.60;99.90;;;;;;4980164;28;20057;-81
2023/10/30 07:13:31;;;;;;;25.33;7.47;;;10.70;99.90;;;;;;4978199;28;20027;-81
2023/10/30 07:15:56;;;;;;;61.92;10.50;;;10.70;99.90;;;;;;4979366;28;20027;-80
2023/10/30 07:18:23;;;;;;;60.92;11.75;;;10.80;99.90;;;;;;4972559;28;20022;-80
2023/10/30 07:20:51;;;;;;;123.65;18.98;;;10.80;99.90;;;;;;4990006;28;20019;-80
2023/10/30 07:23:17;;;;;;;32.65;10.63;;;10.80;99.90;;;;;;5202313;23;20061;-80
2023/10/30 07:47:01;;;;;;;12.77;6.72;;;11.00;99.90;;;;;;5002159;28;20054;-81
2023/10/30 07:49:30;;;;;;;12.60;6.95;;;11.00;99.90;;;;;;5139306;23;20058;-78
2023/10/30 07:51:56;;;;;;;21.70;6.57;;;11.20;99.90;;;;;;4997222;28;20089;-77
2023/10/30 07:54:22;;;;;;;11.95;5.75;;;11.20;99.90;;;;;;4997065;28;20018;-77
2023/10/30 07:56:48;;;;;;;12.20;6.65;;;11.20;99.90;;;;;;5013317;28;20072;-78
2023/10/30 07:59:14;;;;;;;11.27;6.53;;;11.30;99.90;;;;;;5013343;28;20026;-78
2023/10/30 08:01:40;;;;;;;13.00;7.28;;;11.30;99.90;;;;;;4996913;28;20018;-77
2023/10/30 08:04:09;;;;;;;10.32;6.53;;;11.30;99.90;;;;;;5015165;28;20045;-77
2023/10/30 08:06:35;;;;;;;35.75;6.45;;;11.30;99.90;;;;;;4997722;28;20015;-77
2023/10/30 08:09:01;;;;;;;18.17;6.18;;;11.30;99.90;;;;;;4996933;28;20030;-77
2023/10/30 08:11:27;;;;;;;21.05;6.90;;;11.30;99.90;;;;;;4997388;28;20022;-76
2023/10/30 08:13:53;;;;;;;12.32;6.15;;;11.30;99.90;;;;;;5015031;28;20033;-77
2023/10/30 08:16:20;;;;;;;20.90;6.07;;;11.30;99.90;;;;;;4999375;28;20313;-77
2023/10/30 08:18:51;;;;;;;17.27;6.20;;;11.40;99.90;;;;;;5015619;28;20022;-79
2023/10/30 08:21:16;;;;;;;21.92;6.78;;;11.30;99.90;;;;;;4976295;28;20053;-78
2023/10/30 08:23:42;;;;;;;19.80;11.25;;;11.20;99.90;;;;;;4992413;28;20030;-78
2023/10/30 08:26:08;;;;;;;35.38;8.40;;;11.40;99.90;;;;;;4988657;28;20041;-78
2023/10/30 08:28:35;;;;;;;10.60;5.43;;;11.40;99.90;;;;;;4988554;28;20117;-78
2023/10/30 08:31:01;;;;;;;9.90;5.72;;;11.40;99.90;;;;;;4983002;28;20043;-77
2023/10/30 08:33:27;;;;;;;10.90;6.70;;;11.40;99.90;;;;;;4983866;28;20068;-79
2023/10/30 08:35:53;;;;;;;8.75;5.03;;;11.30;99.90;;;;;;5004242;28;20427;-79
2023/10/30 08:38:19;;;;;;;10.68;5.90;;;11.50;99.90;;;;;;5002172;28;20026;-77
2023/10/30 08:40:45;;;;;;;21.52;5.95;;;11.60;99.90;;;;;;4990823;28;20114;-77
2023/10/30 08:43:11;;;;;;;14.70;7.50;;;11.60;99.90;;;;;;5001396;28;20034;-79
2023/10/30 08:45:36;;;;;;;10.88;7.75;;;11.80;99.90;;;;;;4985300;28;20034;-77
2023/10/30 08:48:02;;;;;;;12.15;6.60;;;11.80;99.90;;;;;;4985227;28;20471;-78
2023/10/30 08:50:28;;;;;;;11.88;6.78;;;11.60;99.90;;;;;;4987801;28;20041;-79
2023/10/30 08:52:53;;;;;;;16.77;7.57;;;11.70;99.90;;;;;;4999833;28;20113;-77
2023/10/30 08:55:19;;;;;;;11.20;7.15;;;11.70;99.90;;;;;;4999058;28;20030;-77
2023/10/30 08:57:45;;;;;;;11.35;6.72;;;11.60;99.90;;;;;;4980503;28;20026;-77
2023/10/30 09:00:11;;;;;;;13.80;6.55;;;11.70;99.90;;;;;;4982757;28;20077;-78
2023/10/30 09:02:38;;;;;;;10.70;6.60;;;11.70;99.90;;;;;;4980836;28;20022;-78
2023/10/30 09:05:04;;;;;;;7.82;5.88;;;11.90;99.90;;;;;;4982570;28;20494;-78
2023/10/30 09:07:30;;;;;;;8.20;6.30;;;12.10;99.90;;;;;;4984089;28;20022;-78
2023/10/30 09:09:55;;;;;;;10.25;7.18;;;12.30;99.90;;;;;;4983869;28;20041;-79
2023/10/30 09:12:22;;;;;;;12.73;7.20;;;12.40;99.90;;;;;;4985187;28;20018;-79
2023/10/30 09:14:47;;;;;;;16.77;8.73;;;12.60;99.90;;;;;;4985339;28;20026;-78
2023/10/30 09:17:13;;;;;;;11.27;6.00;;;12.60;99.90;;;;;;4987379;28;20463;-79
2023/10/30 09:19:43;;;;;;;10.20;6.82;;;12.70;99.90;;;;;;4989215;28;20038;-79
2023/10/30 09:22:09;;;;;;;11.48;7.60;;;12.70;99.90;;;;;;4986449;28;20045;-80
2023/10/30 09:24:34;;;;;;;10.00;6.15;;;12.90;99.90;;;;;;4989009;28;20026;-79
2023/10/30 09:27:00;;;;;;;11.15;6.22;;;13.00;99.90;;;;;;5004325;28;20422;-79
2023/10/30 09:29:27;;;;;;;13.80;6.68;;;13.00;99.90;;;;;;4971829;28;20077;-78
2023/10/30 09:31:53;;;;;;;11.50;5.60;;;13.10;99.90;;;;;;4987523;28;20041;-78
2023/10/30 09:34:19;;;;;;;8.13;5.43;;;13.20;99.90;;;;;;5002583;28;20022;-79
2023/10/30 09:36:44;;;;;;;10.57;5.32;;;13.20;99.90;;;;;;4982397;28;20026;-78
2023/10/30 09:39:12;;;;;;;6.40;4.53;;;13.00;99.90;;;;;;4971595;28;20030;-77
2023/10/30 09:41:43;;;;;;;10.02;5.70;;;12.80;99.90;;;;;;5004505;28;20030;-78
2023/10/30 09:44:10;;;;;;;9.70;6.25;;;12.80;99.90;;;;;;4986392;28;20073;-79
2023/10/30 09:46:38;;;;;;;10.32;5.78;;;12.70;99.90;;;;;;4986748;28;20026;-79
2023/10/30 09:49:05;;;;;;;9.20;5.78;;;12.60;99.90;;;;;;4984986;28;20046;-79
2023/10/30 09:51:32;;;;;;;9.27;5.78;;;12.60;99.90;;;;;;4986964;28;20061;-78
2023/10/30 09:53:58;;;;;;;12.13;5.63;;;12.60;99.90;;;;;;5008290;28;20029;-78
2023/10/30 09:56:26;;;;;;;8.38;5.30;;;12.40;99.90;;;;;;4997662;28;20026;-78
2023/10/30 09:58:52;;;;;;;7.85;4.90;;;12.40;99.90;;;;;;4988477;28;20064;-77
2023/10/30 10:01:20;;;;;;;12.70;5.85;;;12.50;99.90;;;;;;5011493;28;20118;-79
2023/10/30 10:03:46;;;;;;;12.32;6.30;;;12.20;99.90;;;;;;4990252;28;20022;-78
2023/10/30 10:06:12;;;;;;;9.95;5.68;;;12.20;99.90;;;;;;4983826;28;20383;-79
2023/10/30 10:08:41;;;;;;;11.38;6.65;;;12.30;99.90;;;;;;4988111;28;20082;-79
2023/10/30 10:11:07;;;;;;;12.55;6.00;;;12.40;99.90;;;;;;5006540;28;20084;-78
2023/10/30 10:13:34;;;;;;;9.70;6.97;;;12.50;99.90;;;;;;5002818;28;20027;-79
2023/10/30 10:16:03;;;;;;;13.05;6.05;;;12.40;99.90;;;;;;5005319;28;20060;-79
2023/10/30 10:18:31;;;;;;;8.70;6.05;;;12.50;99.90;;;;;;4988478;28;20045;-78
2023/10/30 10:21:08;;;;;;;10.50;5.70;;;12.50;99.90;;;;;;5002541;28;20057;-77
2023/10/30 10:23:36;;;;;;;12.07;5.88;;;12.50;99.90;;;;;;4984279;28;20026;-78
2023/10/30 10:26:15;;;;;;;10.77;5.53;;;12.50;99.90;;;;;;5001344;28;20034;-78
2023/10/30 10:28:48;;;;;;;10.52;5.85;;;12.50;99.90;;;;;;4999018;28;20482;-78
2023/10/30 10:31:14;;;;;;;10.00;5.22;;;12.60;99.90;;;;;;4980521;28;20068;-78
2023/10/30 10:33:40;;;;;;;7.63;5.63;;;12.60;99.90;;;;;;5005520;28;20061;-78
2023/10/30 10:36:07;;;;;;;9.32;6.00;;;12.60;99.90;;;;;;5009814;28;20030;-78
2023/10/30 10:38:37;;;;;;;11.35;5.10;;;12.60;99.90;;;;;;4987777;28;20078;-78
2023/10/30 10:41:04;;;;;;;12.13;7.75;;;12.90;99.90;;;;;;4994308;28;20041;-78
2023/10/30 10:43:34;;;;;;;14.55;6.43;;;13.00;99.90;;;;;;4985956;28;20386;-80
2023/10/30 10:46:00;;;;;;;5.70;4.65;;;13.30;99.90;;;;;;5010536;28;20042;-80
2023/10/30 10:48:27;;;;;;;6.30;4.55;;;13.60;99.90;;;;;;5011726;28;20443;-79
2023/10/30 10:50:57;;;;;;;16.65;7.35;;;13.90;99.90;;;;;;5002392;28;20101;-79
2023/10/30 10:53:27;;;;;;;11.07;5.53;;;14.10;99.90;;;;;;4990679;28;20023;-78
2023/10/30 10:56:03;;;;;;;8.77;4.68;;;14.20;99.90;;;;;;5005832;28;20022;-78
2023/10/30 10:58:45;;;;;;;7.85;3.95;;;14.30;99.90;;;;;;5005599;28;20024;-78
2023/10/30 11:01:18;;;;;;;8.45;4.75;;;14.40;99.90;;;;;;4989392;28;20031;-77
2023/10/30 11:03:45;;;;;;;8.15;4.32;;;14.50;99.90;;;;;;5006929;28;20037;-79
2023/10/30 11:06:13;;;;;;;10.45;4.50;;;14.70;99.90;;;;;;4990080;28;20057;-80
2023/10/30 11:08:52;;;;;;;9.40;4.07;;;14.90;99.90;;;;;;5003653;28;20018;-79
2023/10/30 11:11:23;;;;;;;9.80;4.50;;;15.00;99.90;;;;;;5012784;28;20045;-79
2023/10/30 11:14:33;;;;;;;12.68;4.40;;;15.30;99.90;;;;;;4988461;28;20027;-77
2023/10/30 11:17:04;;;;;;;5.47;3.83;;;15.20;99.90;;;;;;4907716;29;20032;-79
2023/10/30 11:19:29;;;;;;;6.88;3.55;;;15.50;99.90;;;;;;4924574;29;20072;-78
2023/10/30 11:21:55;;;;;;;5.90;4.03;;;15.60;99.90;;;;;;4949240;28;20034;-78
2023/10/30 11:24:38;;;;;;;5.65;3.70;;;15.80;99.90;;;;;;4987408;28;20031;-78
2023/10/30 11:27:25;;;;;;;5.47;3.70;;;16.00;99.90;;;;;;4988649;28;20435;-77
2023/10/30 11:30:22;;;;;;;5.03;2.80;;;15.90;99.90;;;;;;4992084;28;20015;-80
2023/10/30 11:32:47;;;;;;;3.28;2.05;;;16.00;99.90;;;;;;4996736;28;20034;-80
2023/10/30 11:35:13;;;;;;;8.98;2.70;;;15.80;99.90;;;;;;4997827;28;20065;-78
2023/10/30 11:37:40;;;;;;;5.28;2.78;;;15.70;99.90;;;;;;4979279;28;20126;-79
2023/10/30 11:40:07;;;;;;;2.83;2.40;;;15.70;99.90;;;;;;4980558;28;20102;-78
2023/10/30 11:42:40;;;;;;;8.30;3.33;;;15.60;99.90;;;;;;5005011;28;20018;-78
2023/10/30 11:45:16;;;;;;;5.38;2.88;;;15.60;99.90;;;;;;4984441;28;20118;-80
2023/10/30 11:47:45;;;;;;;4.93;3.50;;;15.40;99.90;;;;;;4981296;28;20027;-80
2023/10/30 11:50:12;;;;;;;;;;;15.20;99.90;;;;;;5000636;28;20046;-79
2023/10/30 11:52:50;;;;;;;6.00;3.42;;;15.20;99.90;;;;;;4984722;28;19966;-77
2023/10/30 11:55:19;;;;;;;7.72;2.67;;;15.10;99.90;;;;;;5003979;28;20042;-80
2023/10/30 11:57:44;;;;;;;5.85;3.10;;;14.90;99.90;;;;;;4981825;28;20499;-80
2023/10/30 12:00:11;;;;;;;7.50;3.00;;;14.50;99.90;;;;;;5002779;28;20383;-78
2023/10/30 12:02:43;;;;;;;4.15;3.75;;;14.30;99.90;;;;;;4989313;28;20050;-80
2023/10/30 12:05:10;;;;;;;6.10;3.38;;;14.30;99.90;;;;;;4991256;28;20047;-80
2023/10/30 12:07:38;;;;;;;7.72;4.57;;;14.20;99.90;;;;;;5004285;28;20447;-77
2023/10/30 12:10:15;;;;;;;8.20;4.25;;;14.10;99.90;;;;;;4988218;28;20129;-79
2023/10/30 12:12:50;;;;;;;5.22;3.30;;;13.90;99.90;;;;;;5009150;28;20057;-80
2023/10/30 12:15:16;;;;;;;7.65;3.60;;;13.90;99.90;;;;;;4989833;28;20130;-79
2023/10/30 12:17:42;;;;;;;3.92;3.17;;;13.80;99.90;;;;;;4995793;28;20042;-79
2023/10/30 12:20:09;;;;;;;8.80;3.72;;;13.70;99.90;;;;;;4991326;28;20038;-79
2023/10/30 12:22:39;;;;;;;7.55;3.80;;;13.40;99.90;;;;;;4992448;28;20033;-79
2023/10/30 12:25:16;;;;;;;5.72;3.67;;;13.40;99.90;;;;;;4993024;28;20033;-79
2023/10/30 12:27:49;;;;;;;6.50;3.22;;;13.50;99.90;;;;;;4996938;28;20112;-81
2023/10/30 12:30:16;;;;;;;4.40;3.08;;;13.60;99.90;;;;;;4980986;28;20065;-79
2023/10/30 12:32:57;;;;;;;9.82;3.20;;;13.60;99.90;;;;;;4977370;28;20056;-77
2023/10/30 12:35:26;;;;;;;5.75;2.83;;;13.60;99.90;;;;;;5008898;28;20146;-79
2023/10/30 12:37:52;;;;;;;6.22;3.10;;;13.80;99.90;;;;;;4970690;28;20419;-79
2023/10/30 12:40:31;;;;;;;8.23;3.63;;;13.90;99.90;;;;;;4989334;28;20029;-80
2023/10/30 12:43:03;;;;;;;9.10;4.60;;;13.80;99.90;;;;;;4992168;28;20046;-80
2023/10/30 12:45:30;;;;;;;6.97;3.33;;;13.70;99.90;;;;;;4998763;28;20116;-79
2023/10/30 12:47:57;;;;;;;5.13;2.88;;;13.70;99.90;;;;;;4993406;28;20019;-77
2023/10/30 12:50:23;;;;;;;6.78;4.25;;;13.70;99.90;;;;;;4991767;28;20122;-78
2023/10/30 12:52:50;;;;;;;16.33;7.72;;;13.50;99.90;;;;;;4997700;28;20006;-79
2023/10/30 12:55:17;;;;;;;5.70;3.40;;;13.50;99.90;;;;;;5014945;28;20045;-79
2023/10/30 12:57:43;;;;;;;6.35;4.13;;;13.40;99.90;;;;;;5011416;28;20034;-78
2023/10/30 13:00:35;;;;;;;6.38;3.55;;;13.40;99.90;;;;;;4994819;28;20118;-79
2023/10/30 13:03:23;;;;;;;9.90;3.28;;;13.40;99.90;;;;;;4991530;28;20038;-78
2023/10/30 13:06:12;;;;;;;7.75;3.42;;;13.40;99.90;;;;;;4987473;28;20018;-78
2023/10/30 13:08:38;;;;;;;7.57;3.15;;;13.50;99.90;;;;;;4978315;28;20030;-79
2023/10/30 13:11:21;;;;;;;6.00;3.65;;;13.40;99.90;;;;;;5010718;28;20387;-78
2023/10/30 13:13:47;;;;;;;5.18;3.90;;;13.40;99.90;;;;;;4992443;28;20022;-79
2023/10/30 13:16:13;;;;;;;9.15;3.53;;;13.30;99.90;;;;;;4987105;28;20029;-77
2023/10/30 13:18:38;;;;;;;4.47;3.33;;;13.30;99.90;;;;;;4988651;28;20023;-77
2023/10/30 13:21:05;;;;;;;7.88;4.55;;;13.30;99.90;;;;;;4991588;28;20054;-79
2023/10/30 13:23:31;;;;;;;4.35;3.70;;;13.30;99.90;;;;;;4988395;28;20053;-80
2023/10/30 13:25:56;;;;;;;7.60;3.95;;;13.30;99.90;;;;;;4989313;28;20058;-80
2023/10/30 13:28:22;;;;;;;7.55;3.15;;;13.30;99.90;;;;;;5007566;28;20030;-80
2023/10/30 13:30:48;;;;;;;3.75;3.33;;;13.30;99.90;;;;;;4987498;28;20038;-80
2023/10/30 13:33:14;;;;;;;6.50;3.63;;;13.20;99.90;;;;;;5004690;28;20022;-80
2023/10/30 13:35:39;;;;;;;4.65;3.20;;;13.20;99.90;;;;;;5001844;28;20038;-78
2023/10/30 13:38:05;;;;;;;7.10;3.72;;;13.10;99.90;;;;;;4982825;28;20037;-78
2023/10/30 13:40:31;;;;;;;6.43;3.55;;;12.90;99.90;;;;;;5001424;28;20026;-79
2023/10/30 13:43:00;;;;;;;10.73;4.38;;;12.90;99.90;;;;;;4982093;28;20018;-79
2023/10/30 13:45:27;;;;;;;5.03;3.72;;;12.80;99.90;;;;;;4980617;28;20113;-79
2023/10/30 13:47:53;;;;;;;12.52;4.60;;;12.70;99.90;;;;;;4982322;28;20030;-78
2023/10/30 13:50:18;;;;;;;11.10;5.00;;;12.70;99.90;;;;;;5000046;28;20076;-79
2023/10/30 13:52:44;;;;;;;10.55;5.50;;;12.60;99.90;;;;;;4987123;28;20038;-79
2023/10/30 13:55:09;;;;;;;5.80;3.85;;;12.60;99.90;;;;;;4990606;28;20077;-80
2023/10/30 13:57:35;;;;;;;7.15;3.80;;;12.60;99.90;;;;;;5008916;28;20022;-79
2023/10/30 14:00:06;;;;;;;5.75;4.00;;;12.60;99.90;;;;;;4994262;28;20027;-79
2023/10/30 14:02:31;;;;;;;10.93;4.70;;;12.60;99.90;;;;;;5001713;28;20022;-79
2023/10/30 14:04:57;;;;;;;18.98;8.90;;;12.60;99.90;;;;;;5001229;28;20052;-79
2023/10/30 14:07:24;;;;;;;16.38;9.05;;;12.60;99.90;;;;;;4986922;28;20034;-79
2023/10/30 14:09:50;;;;;;;21.83;13.15;;;12.60;99.90;;;;;;5015072;28;20066;-78
2023/10/30 14:12:18;;;;;;;15.30;7.95;;;12.60;99.90;;;;;;5017373;28;20021;-81
2023/10/30 14:14:46;;;;;;;15.48;7.72;;;12.60;99.90;;;;;;5016474;28;20025;-79
2023/10/30 14:17:12;;;;;;;8.30;4.88;;;12.70;99.90;;;;;;5016698;28;20019;-80
2023/10/30 14:19:38;;;;;;;10.68;6.05;;;12.80;99.90;;;;;;5015963;28;20070;-80
2023/10/30 14:22:04;;;;;;;9.15;5.07;;;12.80;99.90;;;;;;4998667;28;20026;-79
2023/10/30 14:24:29;;;;;;;9.27;5.55;;;12.90;99.90;;;;;;4996253;28;20010;-77
2023/10/30 14:26:55;;;;;;;48.05;24.77;;;12.80;99.90;;;;;;5015392;28;20050;-80
2023/10/30 14:29:25;;;;;;;25.05;11.02;;;12.90;99.90;;;;;;5000271;28;20022;-80
2023/10/30 14:31:52;;;;;;;21.23;11.52;;;12.90;99.90;;;;;;5002678;28;20057;-79
2023/10/30 14:34:17;;;;;;;12.90;6.68;;;13.00;99.90;;;;;;5001556;28;20030;-81
2023/10/30 14:36:48;;;;;;;9.07;4.82;;;13.00;99.90;;;;;;5019056;28;20018;-79
2023/10/30 14:39:14;;;;;;;8.27;4.50;;;12.90;99.90;;;;;;5002386;28;20033;-80
2023/10/30 14:41:46;;;;;;;11.38;5.28;;;12.90;99.90;;;;;;5001862;28;20058;-79
2023/10/30 14:44:11;;;;;;;5.70;4.22;;;12.90;99.90;;;;;;4989283;28;20023;-79
2023/10/30 14:46:39;;;;;;;10.00;4.15;;;12.90;99.90;;;;;;4985321;28;20037;-80
2023/10/30 14:49:05;;;;;;;5.93;4.00;;;12.80;99.90;;;;;;4968964;28;20084;-80
2023/10/30 14:51:30;;;;;;;8.23;4.50;;;12.80;99.90;;;;;;4985478;28;20034;-80
2023/10/30 14:53:56;;;;;;;4.60;3.10;;;12.70;99.90;;;;;;5003291;28;20057;-81
2023/10/30 14:56:23;;;;;;;6.70;3.30;;;12.70;99.90;;;;;;4986334;28;20538;-80
2023/10/30 14:58:50;;;;;;;3.20;2.65;;;12.70;99.90;;;;;;4984963;28;20083;-80
2023/10/30 15:01:18;;;;;;;3.83;3.08;;;12.70;99.90;;;;;;5002707;28;20026;-80
2023/10/30 15:03:50;;;;;;;6.65;3.10;;;12.70;99.90;;;;;;4986169;28;20398;-81
2023/10/30 15:06:18;;;;;;;11.25;3.22;;;12.70;99.90;;;;;;4971678;28;20030;-81
2023/10/30 15:08:44;;;;;;;6.82;2.72;;;12.60;99.90;;;;;;5006700;28;20030;-80
2023/10/30 15:11:18;;;;;;;6.85;4.20;;;12.60;99.90;;;;;;4989597;28;20064;-79
2023/10/30 15:13:44;;;;;;;6.10;3.97;;;12.60;99.90;;;;;;4988201;28;20026;-80
2023/10/30 15:16:16;;;;;;;7.93;3.97;;;12.60;99.90;;;;;;4988782;28;20034;-80
2023/10/30 15:18:42;;;;;;;5.20;3.70;;;12.50;99.90;;;;;;4988754;28;20442;-80
2023/10/30 15:21:08;;;;;;;7.65;4.38;;;12.40;99.90;;;;;;4983443;28;20026;-79
2023/10/30 15:23:35;;;;;;;12.88;5.85;;;12.40;99.90;;;;;;4982858;28;20424;-78
2023/10/30 15:26:01;;;;;;;11.40;7.53;;;12.40;99.90;;;;;;4999076;28;20052;-78
2023/10/30 15:28:37;;;;;;;19.30;8.73;;;12.40;99.90;;;;;;4983199;28;20058;-78
2023/10/30 15:31:03;;;;;;;13.85;7.65;;;12.40;99.90;;;;;;4984942;28;20038;-77
2023/10/30 15:33:35;;;;;;;12.63;6.68;;;12.40;99.90;;;;;;4982590;28;20037;-77
2023/10/30 15:36:02;;;;;;;9.93;6.13;;;12.40;99.90;;;;;;4979914;28;20034;-77
2023/10/30 15:38:31;;;;;;;7.20;5.20;;;12.40;99.90;;;;;;4980347;28;20027;-78
2023/10/30 15:41:00;;;;;;;12.00;5.43;;;12.40;99.90;;;;;;5000614;28;20030;-77
2023/10/30 15:43:26;;;;;;;11.57;5.00;;;12.40;99.90;;;;;;4982138;28;20034;-77
2023/10/30 15:45:51;;;;;;;8.98;6.18;;;12.30;99.90;;;;;;4999624;28;20025;-77
2023/10/30 15:48:17;;;;;;;12.75;7.95;;;12.40;99.90;;;;;;4985097;28;20041;-78
2023/10/30 15:50:44;;;;;;;15.52;7.65;;;12.40;99.90;;;;;;5003385;28;20610;-77
2023/10/30 15:53:11;;;;;;;16.90;7.32;;;12.30;99.90;;;;;;5002888;28;20034;-77
2023/10/30 15:55:38;;;;;;;16.88;6.85;;;12.30;99.90;;;;;;4971204;28;20039;-76
2023/10/30 15:58:11;;;;;;;17.50;7.50;;;12.30;99.90;;;;;;5008452;28;20029;-77
2023/10/30 16:00:38;;;;;;;16.75;8.00;;;12.30;99.90;;;;;;4971613;28;20046;-76
2023/10/30 16:03:06;;;;;;;22.50;14.30;;;12.30;99.90;;;;;;4971565;28;20130;-76
2023/10/30 16:05:36;;;;;;;18.63;9.60;;;12.30;99.90;;;;;;4997708;28;20042;-76
2023/10/30 16:08:03;;;;;;;;;;;12.20;99.90;;;;;;4985003;28;20053;-77
2023/10/30 16:10:35;;;;;;;9.77;5.75;;;12.30;99.90;;;;;;5004653;28;19920;-76
2023/10/30 16:13:00;;;;;;;11.80;6.25;;;12.30;99.90;;;;;;5009884;28;20021;-77
2023/10/30 16:15:27;;;;;;;6.43;5.05;;;12.30;99.90;;;;;;5014994;28;20050;-77
2023/10/30 16:17:57;;;;;;;9.45;5.43;;;12.20;99.90;;;;;;5015094;28;20010;-77
2023/10/30 16:20:23;;;;;;;7.50;4.68;;;12.10;99.90;;;;;;5018932;28;20086;-78
2023/10/30 16:22:49;;;;;;;6.35;4.80;;;12.10;99.90;;;;;;4998676;28;20326;-77
2023/10/30 16:25:14;;;;;;;6.13;4.43;;;12.10;99.90;;;;;;4998591;28;20046;-78
2023/10/30 16:27:41;;;;;;;5.88;4.18;;;12.10;99.90;;;;;;4998499;28;20026;-78
2023/10/30 16:30:07;;;;;;;6.50;4.07;;;12.10;99.90;;;;;;5001287;28;20026;-78
2023/10/30 16:32:33;;;;;;;6.35;4.18;;;12.10;99.90;;;;;;5001804;28;20018;-77
2023/10/30 16:34:59;;;;;;;9.05;4.97;;;12.10;99.90;;;;;;4999111;28;20033;-77
2023/10/30 16:37:24;;;;;;;5.80;3.85;;;12.10;99.90;;;;;;5000250;28;20045;-78
2023/10/30 16:39:50;;;;;;;8.55;4.60;;;12.10;99.90;;;;;;5015589;28;20011;-78
2023/10/30 16:42:21;;;;;;;6.00;4.10;;;12.00;99.90;;;;;;4998876;28;20049;-78
2023/10/30 16:44:46;;;;;;;6.65;4.97;;;12.10;99.90;;;;;;5016680;28;20009;-79
2023/10/30 16:47:14;;;;;;;8.27;4.32;;;12.10;99.90;;;;;;5000762;28;20081;-78
2023/10/30 16:49:39;;;;;;;7.28;3.92;;;12.10;99.90;;;;;;5016482;28;20034;-78
2023/10/30 16:52:05;;;;;;;9.95;5.07;;;12.10;99.90;;;;;;5000134;28;20029;-79
2023/10/30 16:54:30;;;;;;;7.25;4.47;;;12.00;99.90;;;;;;5018470;28;20318;-80
2023/10/30 16:56:56;;;;;;;9.80;5.10;;;12.00;99.90;;;;;;5019222;28;20036;-79
2023/10/30 16:59:22;;;;;;;10.18;6.43;;;12.00;99.90;;;;;;4998527;28;20093;-78
2023/10/30 17:01:48;;;;;;;9.18;5.80;;;12.00;99.90;;;;;;5019061;28;20018;-78
2023/10/30 17:04:15;;;;;;;12.45;5.57;;;12.00;99.90;;;;;;5017970;28;20042;-77
2023/10/30 17:06:40;;;;;;;11.88;6.10;;;11.90;99.90;;;;;;5015970;28;20006;-78
2023/10/30 17:09:07;;;;;;;13.50;7.63;;;11.80;99.90;;;;;;4998965;28;20037;-78
2023/10/30 17:11:33;;;;;;;8.93;6.20;;;11.90;99.90;;;;;;4994657;28;20038;-78
2023/10/30 17:13:59;;;;;;;10.73;6.82;;;11.90;99.90;;;;;;4998654;28;20022;-79
2023/10/30 17:16:24;;;;;;;9.82;6.55;;;11.90;99.90;;;;;;5017488;28;20026;-79
2023/10/30 17:18:50;;;;;;;11.15;6.20;;;11.90;99.90;;;;;;5016489;28;20018;-79
2023/10/30 17:21:20;;;;;;;12.13;6.22;;;11.90;99.90;;;;;;4997271;28;20030;-79
2023/10/30 17:23:46;;;;;;;2.78;2.20;;;11.90;99.90;;;;;;5012073;28;20083;-78
2023/10/30 17:26:12;;;;;;;1.33;1.23;;;11.80;99.90;;;;;;4991946;28;20022;-78
2023/10/30 17:28:38;;;;;;;3.20;0.50;;;11.70;99.90;;;;;;4993783;28;20210;-78
2023/10/30 17:31:04;;;;;;;0.50;0.50;;;11.70;99.90;;;;;;4992193;28;20054;-78
2023/10/30 17:33:30;;;;;;;0.60;0.52;;;11.60;99.90;;;;;;4993194;28;20207;-78
2023/10/30 17:35:57;;;;;;;4.65;0.60;;;11.50;99.90;;;;;;4987078;28;20033;-78